sensor_id;sensor_type;location;lat;lon;timestamp;P1;durP1;ratioP1;P2;durP2;ratioP2
61675;SDS011;47574;52.090;5.244;2022-07-04T00:00:33;3.8;;;1.6;;
61675;SDS011;47574;52.090;5.244;2022-07-04T00:02:19;5.11;;;1.6;;
61675;SDS011;47574;52.090;5.244;2022-07-04T00:04:06;4.61;;;1.7;;
61675;SDS011;47574;52.090;5.244;2022-07-04T00:07:39;4.3;;;1.7;;
61675;SDS011;47574;52.090;5.244;2022-07-04T00:09:27;3.7;;;1.6;;
61675;SDS011;47574;52.090;5.244;2022-07-04T00:11:14;4.41;;;1.6;;
61675;SDS011;47574;52.090;5.244;2022-07-04T00:13:00;5.0;;;1.8;;
61675;SDS011;47574;52.090;5.244;2022-07-04T00:14:46;3.6;;;1.7;;
61675;SDS011;47574;52.090;5.244;2022-07-04T00:18:21;5.3;;;1.7;;
61675;SDS011;47574;52.090;5.244;2022-07-04T00:20:07;5.6;;;1.5;;
61675;SDS011;47574;52.090;5.244;2022-07-04T00:21:56;3.8;;;1.6;;
61675;SDS011;47574;52.090;5.244;2022-07-04T00:23:42;3.8;;;1.6;;
61675;SDS011;47574;52.090;5.244;2022-07-04T00:25:28;3.8;;;1.9;;
61675;SDS011;47574;52.090;5.244;2022-07-04T00:27:14;3.7;;;1.8;;
61675;SDS011;47574;52.090;5.244;2022-07-04T00:30:47;4.7;;;2.0;;
61675;SDS011;47574;52.090;5.244;2022-07-04T00:32:34;3.7;;;2.0;;
61675;SDS011;47574;52.090;5.244;2022-07-04T00:34:21;4.0;;;2.21;;
61675;SDS011;47574;52.090;5.244;2022-07-04T00:36:08;4.41;;;1.9;;
61675;SDS011;47574;52.090;5.244;2022-07-04T00:37:54;5.7;;;2.21;;
61675;SDS011;47574;52.090;5.244;2022-07-04T00:39:40;4.1;;;1.9;;
61675;SDS011;47574;52.090;5.244;2022-07-04T00:43:20;5.4;;;2.0;;
61675;SDS011;47574;52.090;5.244;2022-07-04T00:45:08;5.0;;;2.21;;
61675;SDS011;47574;52.090;5.244;2022-07-04T00:46:55;4.61;;;2.1;;
61675;SDS011;47574;52.090;5.244;2022-07-04T00:48:42;4.7;;;2.0;;
61675;SDS011;47574;52.090;5.244;2022-07-04T00:50:28;4.1;;;2.1;;
61675;SDS011;47574;52.090;5.244;2022-07-04T00:52:14;4.61;;;1.9;;
61675;SDS011;47574;52.090;5.244;2022-07-04T00:55:50;4.8;;;2.0;;
61675;SDS011;47574;52.090;5.244;2022-07-04T00:57:38;3.9;;;2.1;;
61675;SDS011;47574;52.090;5.244;2022-07-04T00:59:25;3.3;;;2.1;;
61675;SDS011;47574;52.090;5.244;2022-07-04T01:01:12;5.7;;;2.6;;
61675;SDS011;47574;52.090;5.244;2022-07-04T01:02:59;7.2;;;2.8;;
61675;SDS011;47574;52.090;5.244;2022-07-04T01:04:45;6.0;;;2.7;;
61675;SDS011;47574;52.090;5.244;2022-07-04T01:08:19;5.2;;;3.0;;
61675;SDS011;47574;52.090;5.244;2022-07-04T01:10:06;4.1;;;2.8;;
61675;SDS011;47574;52.090;5.244;2022-07-04T01:11:53;5.11;;;2.7;;
61675;SDS011;47574;52.090;5.244;2022-07-04T01:13:40;7.3;;;3.0;;
61675;SDS011;47574;52.090;5.244;2022-07-04T01:15:28;5.0;;;2.7;;
61675;SDS011;47574;52.090;5.244;2022-07-04T01:19:00;4.8;;;3.1;;
61675;SDS011;47574;52.090;5.244;2022-07-04T01:20:49;5.7;;;3.2;;
61675;SDS011;47574;52.090;5.244;2022-07-04T01:22:35;4.91;;;3.2;;
61675;SDS011;47574;52.090;5.244;2022-07-04T01:24:21;4.0;;;3.2;;
61675;SDS011;47574;52.090;5.244;2022-07-04T01:26:07;7.3;;;3.5;;
61675;SDS011;47574;52.090;5.244;2022-07-04T01:27:54;5.3;;;3.3;;
61675;SDS011;47574;52.090;5.244;2022-07-04T01:31:27;5.9;;;3.6;;
61675;SDS011;47574;52.090;5.244;2022-07-04T01:33:13;5.5;;;3.7;;
61675;SDS011;47574;52.090;5.244;2022-07-04T01:35:00;5.5;;;3.7;;
61675;SDS011;47574;52.090;5.244;2022-07-04T01:36:46;5.7;;;3.9;;
61675;SDS011;47574;52.090;5.244;2022-07-04T01:38:33;7.8;;;3.9;;
61675;SDS011;47574;52.090;5.244;2022-07-04T01:40:19;7.0;;;4.0;;
61675;SDS011;47574;52.090;5.244;2022-07-04T01:43:53;5.0;;;4.0;;
61675;SDS011;47574;52.090;5.244;2022-07-04T01:45:40;7.6;;;4.8;;
61675;SDS011;47574;52.090;5.244;2022-07-04T01:47:27;6.5;;;4.3;;
61675;SDS011;47574;52.090;5.244;2022-07-04T01:49:14;6.9;;;4.3;;
61675;SDS011;47574;52.090;5.244;2022-07-04T01:54:32;7.0;;;4.41;;
61675;SDS011;47574;52.090;5.244;2022-07-04T01:56:19;8.9;;;4.8;;
61675;SDS011;47574;52.090;5.244;2022-07-04T01:58:05;5.9;;;4.41;;
61675;SDS011;47574;52.090;5.244;2022-07-04T02:02:55;6.5;;;4.5;;
61675;SDS011;47574;52.090;5.244;2022-07-04T02:04:42;7.9;;;4.3;;
61675;SDS011;47574;52.090;5.244;2022-07-04T02:06:29;6.7;;;4.61;;
61675;SDS011;47574;52.090;5.244;2022-07-04T02:08:16;7.5;;;4.91;;
61675;SDS011;47574;52.090;5.244;2022-07-04T02:10:03;6.4;;;4.91;;
61675;SDS011;47574;52.090;5.244;2022-07-04T02:14:54;7.4;;;4.61;;
61675;SDS011;47574;52.090;5.244;2022-07-04T02:16:41;6.0;;;4.2;;
61675;SDS011;47574;52.090;5.244;2022-07-04T02:18:28;7.3;;;5.11;;
61675;SDS011;47574;52.090;5.244;2022-07-04T02:20:14;5.0;;;4.41;;
61675;SDS011;47574;52.090;5.244;2022-07-04T02:23:50;7.3;;;4.91;;
61675;SDS011;47574;52.090;5.244;2022-07-04T02:25:36;7.3;;;4.91;;
61675;SDS011;47574;52.090;5.244;2022-07-04T02:27:22;7.0;;;5.11;;
61675;SDS011;47574;52.090;5.244;2022-07-04T02:29:09;7.7;;;5.5;;
61675;SDS011;47574;52.090;5.244;2022-07-04T02:30:55;5.9;;;5.0;;
61675;SDS011;47574;52.090;5.244;2022-07-04T02:32:41;6.3;;;4.8;;
61675;SDS011;47574;52.090;5.244;2022-07-04T02:36:16;7.2;;;5.5;;
61675;SDS011;47574;52.090;5.244;2022-07-04T02:38:02;6.9;;;4.8;;
61675;SDS011;47574;52.090;5.244;2022-07-04T02:39:48;6.8;;;4.7;;
61675;SDS011;47574;52.090;5.244;2022-07-04T02:41:34;6.3;;;5.3;;
61675;SDS011;47574;52.090;5.244;2022-07-04T02:43:21;6.3;;;5.2;;
61675;SDS011;47574;52.090;5.244;2022-07-04T02:46:55;6.4;;;4.8;;
61675;SDS011;47574;52.090;5.244;2022-07-04T02:48:42;7.7;;;4.8;;
61675;SDS011;47574;52.090;5.244;2022-07-04T02:50:28;6.3;;;4.61;;
61675;SDS011;47574;52.090;5.244;2022-07-04T02:52:15;6.1;;;4.7;;
61675;SDS011;47574;52.090;5.244;2022-07-04T02:54:01;7.0;;;4.7;;
61675;SDS011;47574;52.090;5.244;2022-07-04T02:55:49;4.5;;;3.4;;
61675;SDS011;47574;52.090;5.244;2022-07-04T02:59:23;4.0;;;3.2;;
61675;SDS011;47574;52.090;5.244;2022-07-04T03:01:10;4.5;;;3.3;;
61675;SDS011;47574;52.090;5.244;2022-07-04T03:02:56;4.3;;;3.6;;
61675;SDS011;47574;52.090;5.244;2022-07-04T03:04:42;4.41;;;4.0;;
61675;SDS011;47574;52.090;5.244;2022-07-04T03:06:28;5.8;;;4.1;;
61675;SDS011;47574;52.090;5.244;2022-07-04T03:08:16;6.6;;;4.61;;
61675;SDS011;47574;52.090;5.244;2022-07-04T03:11:50;5.7;;;4.7;;
61675;SDS011;47574;52.090;5.244;2022-07-04T03:13:36;7.2;;;4.7;;
61675;SDS011;47574;52.090;5.244;2022-07-04T03:15:25;6.9;;;5.2;;
61675;SDS011;47574;52.090;5.244;2022-07-04T03:17:11;5.6;;;4.3;;
61675;SDS011;47574;52.090;5.244;2022-07-04T03:18:58;7.4;;;4.8;;
61675;SDS011;47574;52.090;5.244;2022-07-04T03:20:45;6.1;;;4.41;;
61675;SDS011;47574;52.090;5.244;2022-07-04T03:24:18;4.3;;;3.4;;
61675;SDS011;47574;52.090;5.244;2022-07-04T03:26:04;6.1;;;4.7;;
61675;SDS011;47574;52.090;5.244;2022-07-04T03:27:51;5.6;;;4.8;;
61675;SDS011;47574;52.090;5.244;2022-07-04T03:29:37;5.0;;;3.7;;
61675;SDS011;47574;52.090;5.244;2022-07-04T03:31:24;6.3;;;4.2;;
61675;SDS011;47574;52.090;5.244;2022-07-04T03:34:58;5.4;;;3.9;;
61675;SDS011;47574;52.090;5.244;2022-07-04T03:36:44;6.9;;;4.2;;
61675;SDS011;47574;52.090;5.244;2022-07-04T03:38:30;6.7;;;4.2;;
61675;SDS011;47574;52.090;5.244;2022-07-04T03:40:17;5.0;;;3.6;;
61675;SDS011;47574;52.090;5.244;2022-07-04T03:42:04;4.61;;;3.5;;
61675;SDS011;47574;52.090;5.244;2022-07-04T03:43:51;4.91;;;3.3;;
61675;SDS011;47574;52.090;5.244;2022-07-04T03:47:23;4.8;;;3.3;;
61675;SDS011;47574;52.090;5.244;2022-07-04T03:49:10;4.7;;;3.5;;
61675;SDS011;47574;52.090;5.244;2022-07-04T03:50:57;4.5;;;3.6;;
61675;SDS011;47574;52.090;5.244;2022-07-04T03:52:44;4.61;;;3.9;;
61675;SDS011;47574;52.090;5.244;2022-07-04T03:54:31;6.1;;;4.3;;
61675;SDS011;47574;52.090;5.244;2022-07-04T03:56:17;6.9;;;4.3;;
61675;SDS011;47574;52.090;5.244;2022-07-04T03:59:51;5.0;;;4.2;;
61675;SDS011;47574;52.090;5.244;2022-07-04T04:01:37;5.0;;;4.2;;
61675;SDS011;47574;52.090;5.244;2022-07-04T04:06:27;5.2;;;4.1;;
61675;SDS011;47574;52.090;5.244;2022-07-04T04:08:14;4.8;;;4.3;;
61675;SDS011;47574;52.090;5.244;2022-07-04T04:10:00;5.0;;;4.5;;
61675;SDS011;47574;52.090;5.244;2022-07-04T04:11:47;5.11;;;4.61;;
61675;SDS011;47574;52.090;5.244;2022-07-04T04:13:33;8.81;;;4.91;;
61675;SDS011;47574;52.090;5.244;2022-07-04T04:15:19;6.0;;;4.8;;
61675;SDS011;47574;52.090;5.244;2022-07-04T04:18:53;7.1;;;5.2;;
61675;SDS011;47574;52.090;5.244;2022-07-04T04:20:39;8.5;;;5.7;;
61675;SDS011;47574;52.090;5.244;2022-07-04T04:22:27;8.31;;;5.11;;
61675;SDS011;47574;52.090;5.244;2022-07-04T04:24:13;7.7;;;5.0;;
61675;SDS011;47574;52.090;5.244;2022-07-04T04:25:59;8.31;;;5.8;;
61675;SDS011;47574;52.090;5.244;2022-07-04T04:27:45;7.4;;;5.9;;
61675;SDS011;47574;52.090;5.244;2022-07-04T04:31:18;9.1;;;5.6;;
61675;SDS011;47574;52.090;5.244;2022-07-04T04:33:05;9.5;;;6.4;;
61675;SDS011;47574;52.090;5.244;2022-07-04T04:34:51;7.8;;;6.1;;
61675;SDS011;47574;52.090;5.244;2022-07-04T04:36:37;11.0;;;6.4;;
61675;SDS011;47574;52.090;5.244;2022-07-04T04:38:23;6.2;;;5.6;;
61675;SDS011;47574;52.090;5.244;2022-07-04T04:41:58;7.3;;;6.0;;
61675;SDS011;47574;52.090;5.244;2022-07-04T04:43:44;6.9;;;6.1;;
61675;SDS011;47574;52.090;5.244;2022-07-04T04:45:30;8.81;;;6.5;;
61675;SDS011;47574;52.090;5.244;2022-07-04T04:47:16;9.5;;;6.3;;
61675;SDS011;47574;52.090;5.244;2022-07-04T04:49:02;7.5;;;5.9;;
61675;SDS011;47574;52.090;5.244;2022-07-04T04:50:49;8.5;;;6.2;;
61675;SDS011;47574;52.090;5.244;2022-07-04T04:54:22;7.9;;;6.3;;
61675;SDS011;47574;52.090;5.244;2022-07-04T04:56:09;8.81;;;6.4;;
61675;SDS011;47574;52.090;5.244;2022-07-04T04:57:55;7.5;;;6.3;;
61675;SDS011;47574;52.090;5.244;2022-07-04T04:59:41;7.8;;;6.3;;
61675;SDS011;47574;52.090;5.244;2022-07-04T05:01:28;9.71;;;6.2;;
61675;SDS011;47574;52.090;5.244;2022-07-04T05:03:15;7.1;;;5.9;;
61675;SDS011;47574;52.090;5.244;2022-07-04T05:06:49;9.0;;;6.1;;
61675;SDS011;47574;52.090;5.244;2022-07-04T05:08:36;8.2;;;5.7;;
61675;SDS011;47574;52.090;5.244;2022-07-04T05:10:23;8.31;;;6.2;;
61675;SDS011;47574;52.090;5.244;2022-07-04T05:12:09;8.6;;;5.6;;
61675;SDS011;47574;52.090;5.244;2022-07-04T05:13:56;10.5;;;5.7;;
61675;SDS011;47574;52.090;5.244;2022-07-04T05:17:29;8.81;;;6.0;;
61675;SDS011;47574;52.090;5.244;2022-07-04T05:21:01;11.5;;;6.1;;
61675;SDS011;47574;52.090;5.244;2022-07-04T05:22:48;8.31;;;5.9;;
61675;SDS011;47574;52.090;5.244;2022-07-04T05:24:39;8.31;;;5.9;;
61675;SDS011;47574;52.090;5.244;2022-07-04T05:26:25;8.71;;;5.9;;
61675;SDS011;47574;52.090;5.244;2022-07-04T05:29:58;10.1;;;6.0;;
61675;SDS011;47574;52.090;5.244;2022-07-04T05:31:45;8.4;;;5.5;;
61675;SDS011;47574;52.090;5.244;2022-07-04T05:33:31;7.5;;;5.5;;
61675;SDS011;47574;52.090;5.244;2022-07-04T05:35:17;9.6;;;5.3;;
61675;SDS011;47574;52.090;5.244;2022-07-04T05:37:03;8.31;;;5.4;;
61675;SDS011;47574;52.090;5.244;2022-07-04T05:38:51;9.31;;;5.2;;
61675;SDS011;47574;52.090;5.244;2022-07-04T05:42:24;9.0;;;5.7;;
61675;SDS011;47574;52.090;5.244;2022-07-04T05:44:11;9.4;;;5.2;;
61675;SDS011;47574;52.090;5.244;2022-07-04T05:45:57;9.31;;;5.5;;
61675;SDS011;47574;52.090;5.244;2022-07-04T05:47:44;9.81;;;5.2;;
61675;SDS011;47574;52.090;5.244;2022-07-04T05:49:31;9.81;;;5.4;;
61675;SDS011;47574;52.090;5.244;2022-07-04T05:53:03;10.4;;;6.0;;
61675;SDS011;47574;52.090;5.244;2022-07-04T05:54:49;8.4;;;5.3;;
61675;SDS011;47574;52.090;5.244;2022-07-04T05:56:37;8.0;;;5.7;;
61675;SDS011;47574;52.090;5.244;2022-07-04T05:58:24;9.0;;;6.0;;
61675;SDS011;47574;52.090;5.244;2022-07-04T06:00:11;8.0;;;5.0;;
61675;SDS011;47574;52.090;5.244;2022-07-04T06:01:59;9.4;;;5.4;;
61675;SDS011;47574;52.090;5.244;2022-07-04T06:05:32;7.4;;;4.8;;
61675;SDS011;47574;52.090;5.244;2022-07-04T06:07:18;9.1;;;5.2;;
61675;SDS011;47574;52.090;5.244;2022-07-04T06:09:05;11.1;;;5.6;;
61675;SDS011;47574;52.090;5.244;2022-07-04T06:10:51;9.71;;;4.91;;
61675;SDS011;47574;52.090;5.244;2022-07-04T06:12:38;9.6;;;5.11;;
61675;SDS011;47574;52.090;5.244;2022-07-04T06:14:24;11.1;;;5.2;;
61675;SDS011;47574;52.090;5.244;2022-07-04T06:17:56;9.71;;;5.3;;
61675;SDS011;47574;52.090;5.244;2022-07-04T06:19:43;9.31;;;5.3;;
61675;SDS011;47574;52.090;5.244;2022-07-04T06:21:30;10.8;;;4.5;;
61675;SDS011;47574;52.090;5.244;2022-07-04T06:23:16;10.1;;;4.61;;
61675;SDS011;47574;52.090;5.244;2022-07-04T06:25:03;14.2;;;4.7;;
61675;SDS011;47574;52.090;5.244;2022-07-04T06:28:37;10.5;;;4.7;;
61675;SDS011;47574;52.090;5.244;2022-07-04T06:30:23;10.6;;;4.8;;
61675;SDS011;47574;52.090;5.244;2022-07-04T06:32:10;12.6;;;4.91;;
61675;SDS011;47574;52.090;5.244;2022-07-04T06:36:59;12.4;;;5.2;;
61675;SDS011;47574;52.090;5.244;2022-07-04T06:38:46;11.1;;;5.0;;
61675;SDS011;47574;52.090;5.244;2022-07-04T06:40:32;11.2;;;4.61;;
61675;SDS011;47574;52.090;5.244;2022-07-04T06:42:20;11.6;;;5.2;;
61675;SDS011;47574;52.090;5.244;2022-07-04T06:44:06;11.8;;;4.7;;
61675;SDS011;47574;52.090;5.244;2022-07-04T06:45:53;11.2;;;5.2;;
61675;SDS011;47574;52.090;5.244;2022-07-04T06:49:26;10.6;;;4.91;;
61675;SDS011;47574;52.090;5.244;2022-07-04T06:51:13;11.9;;;4.41;;
61675;SDS011;47574;52.090;5.244;2022-07-04T06:53:00;11.5;;;5.3;;
61675;SDS011;47574;52.090;5.244;2022-07-04T06:54:48;14.0;;;5.2;;
61675;SDS011;47574;52.090;5.244;2022-07-04T06:56:34;10.1;;;4.8;;
61675;SDS011;47574;52.090;5.244;2022-07-04T07:01:56;15.8;;;5.4;;
61675;SDS011;47574;52.090;5.244;2022-07-04T07:03:42;9.9;;;4.41;;
61675;SDS011;47574;52.090;5.244;2022-07-04T07:05:29;10.4;;;4.2;;
61675;SDS011;47574;52.090;5.244;2022-07-04T07:07:17;12.2;;;4.7;;
61675;SDS011;47574;52.090;5.244;2022-07-04T07:09:03;12.9;;;5.11;;
61675;SDS011;47574;52.090;5.244;2022-07-04T07:12:37;10.8;;;4.91;;
61675;SDS011;47574;52.090;5.244;2022-07-04T07:14:23;14.6;;;5.11;;
61675;SDS011;47574;52.090;5.244;2022-07-04T07:16:10;12.6;;;4.8;;
61675;SDS011;47574;52.090;5.244;2022-07-04T07:17:57;13.0;;;5.2;;
61675;SDS011;47574;52.090;5.244;2022-07-04T07:19:44;12.2;;;4.8;;
61675;SDS011;47574;52.090;5.244;2022-07-04T07:21:31;12.8;;;4.8;;
61675;SDS011;47574;52.090;5.244;2022-07-04T07:25:04;8.9;;;4.7;;
61675;SDS011;47574;52.090;5.244;2022-07-04T07:26:51;9.9;;;4.3;;
61675;SDS011;47574;52.090;5.244;2022-07-04T07:28:38;10.0;;;4.61;;
61675;SDS011;47574;52.090;5.244;2022-07-04T07:30:25;9.21;;;4.2;;
61675;SDS011;47574;52.090;5.244;2022-07-04T07:32:13;10.8;;;3.9;;
61675;SDS011;47574;52.090;5.244;2022-07-04T07:34:00;10.6;;;4.41;;
61675;SDS011;47574;52.090;5.244;2022-07-04T07:37:32;11.2;;;4.41;;
61675;SDS011;47574;52.090;5.244;2022-07-04T07:39:19;10.5;;;4.0;;
61675;SDS011;47574;52.090;5.244;2022-07-04T07:41:07;9.9;;;3.6;;
61675;SDS011;47574;52.090;5.244;2022-07-04T07:42:54;9.4;;;4.0;;
61675;SDS011;47574;52.090;5.244;2022-07-04T07:44:41;10.3;;;3.6;;
61675;SDS011;47574;52.090;5.244;2022-07-04T07:46:28;8.2;;;3.0;;
61675;SDS011;47574;52.090;5.244;2022-07-04T07:50:04;8.0;;;3.2;;
61675;SDS011;47574;52.090;5.244;2022-07-04T07:51:51;8.6;;;3.0;;
61675;SDS011;47574;52.090;5.244;2022-07-04T07:53:38;6.6;;;2.21;;
61675;SDS011;47574;52.090;5.244;2022-07-04T07:55:25;5.4;;;2.0;;
61675;SDS011;47574;52.090;5.244;2022-07-04T07:57:12;6.2;;;2.4;;
61675;SDS011;47574;52.090;5.244;2022-07-04T07:58:58;6.7;;;2.0;;
61675;SDS011;47574;52.090;5.244;2022-07-04T08:05:32;5.3;;;2.5;;
61675;SDS011;47574;52.090;5.244;2022-07-04T08:09:05;6.7;;;2.1;;
61675;SDS011;47574;52.090;5.244;2022-07-04T08:10:52;6.0;;;2.1;;
61675;SDS011;47574;52.090;5.244;2022-07-04T08:12:39;5.11;;;1.7;;
61675;SDS011;47574;52.090;5.244;2022-07-04T08:14:26;4.2;;;1.6;;
61675;SDS011;47574;52.090;5.244;2022-07-04T08:16:13;3.3;;;1.5;;
61675;SDS011;47574;52.090;5.244;2022-07-04T08:18:00;5.7;;;1.7;;
61675;SDS011;47574;52.090;5.244;2022-07-04T08:21:34;7.9;;;2.21;;
61675;SDS011;47574;52.090;5.244;2022-07-04T08:23:23;8.2;;;2.6;;
61675;SDS011;47574;52.090;5.244;2022-07-04T08:25:11;3.0;;;1.8;;
61675;SDS011;47574;52.090;5.244;2022-07-04T08:26:57;2.31;;;1.3;;
61675;SDS011;47574;52.090;5.244;2022-07-04T08:28:44;4.2;;;1.6;;
61675;SDS011;47574;52.090;5.244;2022-07-04T08:30:31;3.8;;;1.8;;
61675;SDS011;47574;52.090;5.244;2022-07-04T08:34:05;3.3;;;1.3;;
61675;SDS011;47574;52.090;5.244;2022-07-04T08:35:53;2.6;;;1.4;;
61675;SDS011;47574;52.090;5.244;2022-07-04T08:37:40;3.0;;;1.8;;
61675;SDS011;47574;52.090;5.244;2022-07-04T08:39:28;3.6;;;1.5;;
61675;SDS011;47574;52.090;5.244;2022-07-04T08:41:15;4.8;;;1.8;;
61675;SDS011;47574;52.090;5.244;2022-07-04T08:43:04;2.9;;;1.4;;
61675;SDS011;47574;52.090;5.244;2022-07-04T08:46:40;5.3;;;1.4;;
61675;SDS011;47574;52.090;5.244;2022-07-04T08:48:27;4.3;;;1.5;;
61675;SDS011;47574;52.090;5.244;2022-07-04T08:50:19;3.7;;;1.6;;
61675;SDS011;47574;52.090;5.244;2022-07-04T08:52:15;4.3;;;2.1;;
61675;SDS011;47574;52.090;5.244;2022-07-04T09:00:21;4.1;;;1.5;;
61675;SDS011;47574;52.090;5.244;2022-07-04T09:02:07;2.5;;;1.4;;
61675;SDS011;47574;52.090;5.244;2022-07-04T09:03:54;3.5;;;1.4;;
61675;SDS011;47574;52.090;5.244;2022-07-04T09:07:29;2.6;;;1.3;;
61675;SDS011;47574;52.090;5.244;2022-07-04T09:09:16;4.5;;;1.3;;
61675;SDS011;47574;52.090;5.244;2022-07-04T09:11:03;4.2;;;1.0;;
61675;SDS011;47574;52.090;5.244;2022-07-04T09:12:50;4.5;;;1.8;;
61675;SDS011;47574;52.090;5.244;2022-07-04T09:14:38;2.5;;;1.0;;
61675;SDS011;47574;52.090;5.244;2022-07-04T09:16:25;3.7;;;1.11;;
61675;SDS011;47574;52.090;5.244;2022-07-04T09:20:10;4.91;;;1.7;;
61675;SDS011;47574;52.090;5.244;2022-07-04T09:22:01;4.1;;;1.4;;
61675;SDS011;47574;52.090;5.244;2022-07-04T09:23:49;4.5;;;1.6;;
61675;SDS011;47574;52.090;5.244;2022-07-04T09:25:35;5.5;;;1.4;;
61675;SDS011;47574;52.090;5.244;2022-07-04T09:27:30;5.3;;;1.9;;
61675;SDS011;47574;52.090;5.244;2022-07-04T09:29:18;2.6;;;1.3;;
61675;SDS011;47574;52.090;5.244;2022-07-04T09:31:12;2.5;;;1.2;;
61675;SDS011;47574;52.090;5.244;2022-07-04T09:33:07;5.4;;;1.3;;
61675;SDS011;47574;52.090;5.244;2022-07-04T09:36:43;2.9;;;1.5;;
61675;SDS011;47574;52.090;5.244;2022-07-04T09:38:31;4.0;;;1.2;;
61675;SDS011;47574;52.090;5.244;2022-07-04T09:40:20;4.7;;;1.2;;
61675;SDS011;47574;52.090;5.244;2022-07-04T09:42:11;4.61;;;1.4;;
61675;SDS011;47574;52.090;5.244;2022-07-04T09:43:59;3.5;;;1.4;;
61675;SDS011;47574;52.090;5.244;2022-07-04T09:45:55;4.3;;;1.3;;
61675;SDS011;47574;52.090;5.244;2022-07-04T09:49:31;3.5;;;1.6;;
61675;SDS011;47574;52.090;5.244;2022-07-04T09:51:21;3.2;;;1.5;;
61675;SDS011;47574;52.090;5.244;2022-07-04T09:53:25;5.11;;;1.4;;
61675;SDS011;47574;52.090;5.244;2022-07-04T09:55:20;3.9;;;1.8;;
61675;SDS011;47574;52.090;5.244;2022-07-04T09:57:08;6.8;;;1.9;;
61675;SDS011;47574;52.090;5.244;2022-07-04T09:58:56;3.0;;;1.5;;
61675;SDS011;47574;52.090;5.244;2022-07-04T10:00:43;7.9;;;2.21;;
61675;SDS011;47574;52.090;5.244;2022-07-04T10:02:32;5.2;;;1.8;;
61675;SDS011;47574;52.090;5.244;2022-07-04T10:06:09;2.6;;;1.6;;
61675;SDS011;47574;52.090;5.244;2022-07-04T10:07:57;3.3;;;1.5;;
61675;SDS011;47574;52.090;5.244;2022-07-04T10:09:45;7.0;;;2.1;;
61675;SDS011;47574;52.090;5.244;2022-07-04T10:11:32;3.9;;;1.9;;
61675;SDS011;47574;52.090;5.244;2022-07-04T10:13:19;5.2;;;1.9;;
61675;SDS011;47574;52.090;5.244;2022-07-04T10:15:07;5.4;;;1.6;;
61675;SDS011;47574;52.090;5.244;2022-07-04T10:18:41;6.4;;;1.5;;
61675;SDS011;47574;52.090;5.244;2022-07-04T10:20:27;4.1;;;1.7;;
61675;SDS011;47574;52.090;5.244;2022-07-04T10:22:14;2.7;;;1.11;;
61675;SDS011;47574;52.090;5.244;2022-07-04T10:24:03;1.8;;;1.11;;
61675;SDS011;47574;52.090;5.244;2022-07-04T10:25:50;3.5;;;1.3;;
61675;SDS011;47574;52.090;5.244;2022-07-04T10:27:38;2.9;;;1.3;;
61675;SDS011;47574;52.090;5.244;2022-07-04T10:31:13;1.2;;;1.11;;
61675;SDS011;47574;52.090;5.244;2022-07-04T10:33:02;2.1;;;1.2;;
61675;SDS011;47574;52.090;5.244;2022-07-04T10:34:51;3.2;;;1.5;;
61675;SDS011;47574;52.090;5.244;2022-07-04T10:36:37;2.9;;;1.3;;
61675;SDS011;47574;52.090;5.244;2022-07-04T10:38:24;1.4;;;1.11;;
61675;SDS011;47574;52.090;5.244;2022-07-04T10:40:19;32.9;;;3.8;;
61675;SDS011;47574;52.090;5.244;2022-07-04T10:42:28;2.8;;;1.4;;
61675;SDS011;47574;52.090;5.244;2022-07-04T10:44:20;4.3;;;1.3;;
61675;SDS011;47574;52.090;5.244;2022-07-04T10:49:16;2.1;;;1.2;;
61675;SDS011;47574;52.090;5.244;2022-07-04T10:51:06;2.6;;;1.0;;
61675;SDS011;47574;52.090;5.244;2022-07-04T10:53:08;1.4;;;0.9;;
61675;SDS011;47574;52.090;5.244;2022-07-04T10:54:56;1.4;;;0.9;;
61675;SDS011;47574;52.090;5.244;2022-07-04T10:58:37;2.31;;;0.8;;
61675;SDS011;47574;52.090;5.244;2022-07-04T11:00:30;2.1;;;1.4;;
61675;SDS011;47574;52.090;5.244;2022-07-04T11:02:24;1.8;;;0.8;;
61675;SDS011;47574;52.090;5.244;2022-07-04T11:04:44;2.31;;;1.11;;
61675;SDS011;47574;52.090;5.244;2022-07-04T11:06:49;2.7;;;1.11;;
61675;SDS011;47574;52.090;5.244;2022-07-04T11:09:22;3.7;;;0.9;;
61675;SDS011;47574;52.090;5.244;2022-07-04T11:11:28;2.6;;;0.9;;
61675;SDS011;47574;52.090;5.244;2022-07-04T11:13:34;2.6;;;1.0;;
61675;SDS011;47574;52.090;5.244;2022-07-04T11:17:52;7.4;;;1.3;;
61675;SDS011;47574;52.090;5.244;2022-07-04T11:21:28;3.1;;;0.8;;
61675;SDS011;47574;52.090;5.244;2022-07-04T11:23:16;1.8;;;0.8;;
61675;SDS011;47574;52.090;5.244;2022-07-04T11:25:04;2.8;;;0.8;;
61675;SDS011;47574;52.090;5.244;2022-07-04T11:26:51;4.5;;;0.8;;
61675;SDS011;47574;52.090;5.244;2022-07-04T11:28:41;13.6;;;2.21;;
61675;SDS011;47574;52.090;5.244;2022-07-04T11:30:27;3.7;;;1.0;;
61675;SDS011;47574;52.090;5.244;2022-07-04T11:33:59;2.1;;;0.9;;
61675;SDS011;47574;52.090;5.244;2022-07-04T11:36:03;1.3;;;1.11;;
61675;SDS011;47574;52.090;5.244;2022-07-04T11:37:55;2.1;;;1.0;;
61675;SDS011;47574;52.090;5.244;2022-07-04T11:39:43;2.5;;;0.8;;
61675;SDS011;47574;52.090;5.244;2022-07-04T11:45:05;3.6;;;0.9;;
61675;SDS011;47574;52.090;5.244;2022-07-04T11:47:10;1.9;;;0.8;;
61675;SDS011;47574;52.090;5.244;2022-07-04T11:49:06;2.31;;;0.9;;
61675;SDS011;47574;52.090;5.244;2022-07-04T11:50:54;5.3;;;1.11;;
61675;SDS011;47574;52.090;5.244;2022-07-04T11:52:41;2.31;;;1.0;;
61675;SDS011;47574;52.090;5.244;2022-07-04T11:54:29;5.6;;;1.4;;
61675;SDS011;47574;52.090;5.244;2022-07-04T11:56:17;2.9;;;1.0;;
61675;SDS011;47574;52.090;5.244;2022-07-04T11:58:03;8.6;;;1.4;;
61675;SDS011;47574;52.090;5.244;2022-07-04T11:59:51;3.0;;;1.11;;
61675;SDS011;47574;52.090;5.244;2022-07-04T12:01:44;1.4;;;0.9;;
61675;SDS011;47574;52.090;5.244;2022-07-04T12:05:18;1.6;;;0.7;;
61675;SDS011;47574;52.090;5.244;2022-07-04T12:07:08;2.5;;;1.0;;
61675;SDS011;47574;52.090;5.244;2022-07-04T12:08:56;2.4;;;1.0;;
61675;SDS011;47574;52.090;5.244;2022-07-04T12:10:46;2.0;;;0.9;;
61675;SDS011;47574;52.090;5.244;2022-07-04T12:12:32;3.3;;;1.11;;
61675;SDS011;47574;52.090;5.244;2022-07-04T12:14:18;3.3;;;1.11;;
61675;SDS011;47574;52.090;5.244;2022-07-04T12:17:57;2.9;;;1.11;;
61675;SDS011;47574;52.090;5.244;2022-07-04T12:19:51;3.1;;;1.0;;
61675;SDS011;47574;52.090;5.244;2022-07-04T12:21:41;2.5;;;0.8;;
61675;SDS011;47574;52.090;5.244;2022-07-04T12:23:29;2.6;;;0.8;;
61675;SDS011;47574;52.090;5.244;2022-07-04T12:25:20;3.0;;;0.9;;
61675;SDS011;47574;52.090;5.244;2022-07-04T12:27:16;1.9;;;1.0;;
61675;SDS011;47574;52.090;5.244;2022-07-04T12:29:09;1.9;;;1.0;;
61675;SDS011;47574;52.090;5.244;2022-07-04T12:32:47;2.4;;;1.0;;
61675;SDS011;47574;52.090;5.244;2022-07-04T12:34:35;3.8;;;0.9;;
61675;SDS011;47574;52.090;5.244;2022-07-04T12:36:21;2.1;;;0.8;;
61675;SDS011;47574;52.090;5.244;2022-07-04T12:38:09;2.6;;;0.9;;
61675;SDS011;47574;52.090;5.244;2022-07-04T12:40:06;2.6;;;0.9;;
61675;SDS011;47574;52.090;5.244;2022-07-04T12:42:02;2.21;;;1.0;;
61675;SDS011;47574;52.090;5.244;2022-07-04T12:43:51;1.7;;;0.8;;
61675;SDS011;47574;52.090;5.244;2022-07-04T12:45:42;1.6;;;0.7;;
61675;SDS011;47574;52.090;5.244;2022-07-04T12:49:17;3.2;;;1.0;;
61675;SDS011;47574;52.090;5.244;2022-07-04T12:51:08;2.31;;;0.9;;
61675;SDS011;47574;52.090;5.244;2022-07-04T12:52:57;1.9;;;0.8;;
61675;SDS011;47574;52.090;5.244;2022-07-04T12:54:45;3.7;;;0.7;;
61675;SDS011;47574;52.090;5.244;2022-07-04T12:56:49;2.8;;;0.8;;
61675;SDS011;47574;52.090;5.244;2022-07-04T12:58:36;4.61;;;0.7;;
61675;SDS011;47574;52.090;5.244;2022-07-04T13:00:23;3.0;;;0.9;;
61675;SDS011;47574;52.090;5.244;2022-07-04T13:03:58;1.6;;;0.7;;
61675;SDS011;47574;52.090;5.244;2022-07-04T13:05:45;3.2;;;0.9;;
61675;SDS011;47574;52.090;5.244;2022-07-04T13:07:32;2.5;;;0.8;;
61675;SDS011;47574;52.090;5.244;2022-07-04T13:09:18;1.8;;;0.8;;
61675;SDS011;47574;52.090;5.244;2022-07-04T13:14:09;2.31;;;0.8;;
61675;SDS011;47574;52.090;5.244;2022-07-04T13:15:56;2.8;;;0.9;;
61675;SDS011;47574;52.090;5.244;2022-07-04T13:17:45;3.4;;;1.0;;
61675;SDS011;47574;52.090;5.244;2022-07-04T13:19:31;5.6;;;0.8;;
61675;SDS011;47574;52.090;5.244;2022-07-04T13:21:18;2.21;;;0.9;;
61675;SDS011;47574;52.090;5.244;2022-07-04T13:24:51;2.1;;;0.7;;
61675;SDS011;47574;52.090;5.244;2022-07-04T13:26:38;1.2;;;0.7;;
61675;SDS011;47574;52.090;5.244;2022-07-04T13:28:23;2.21;;;0.9;;
61675;SDS011;47574;52.090;5.244;2022-07-04T13:30:10;5.3;;;1.11;;